createdAt,value
2019-04-14T00:02:22.882Z,7.62
2019-04-14T00:04:57.211Z,8.58
2019-04-14T00:07:29.864Z,8.10
2019-04-14T00:10:02.938Z,7.53
2019-04-14T00:12:35.834Z,8.83
2019-04-14T00:15:23.446Z,8.28
2019-04-14T00:17:45.575Z,7.62
2019-04-14T00:20:18.610Z,7.80
2019-04-14T00:22:53.407Z,7.10
2019-04-14T00:25:26.222Z,7.03
2019-04-14T00:27:58.632Z,6.87
2019-04-14T00:30:31.632Z,7.67
2019-04-14T00:33:06.271Z,7.85
2019-04-14T00:35:47.172Z,9.63
2019-04-14T00:38:26.067Z,7.70
2019-04-14T00:41:07.965Z,7.95
2019-04-14T00:43:50.600Z,6.25
2019-04-14T00:46:31.237Z,6.60
2019-04-14T00:49:02.823Z,7.28
2019-04-14T00:51:37.743Z,7.20
2019-04-14T00:54:08.941Z,7.80
2019-04-14T00:56:41.894Z,7.45
2019-04-14T00:59:13.893Z,7.22
2019-04-14T01:01:46.011Z,7.78
2019-04-14T01:04:18.713Z,7.87
2019-04-14T01:06:51.737Z,8.15
2019-04-14T01:09:24.044Z,9.18
2019-04-14T01:11:57.428Z,8.48
2019-04-14T01:14:29.866Z,9.48
2019-04-14T01:17:03.151Z,7.87
2019-04-14T01:19:35.308Z,8.55
2019-04-14T01:22:07.495Z,8.05
2019-04-14T01:24:40.383Z,8.35
2019-04-14T01:27:14.598Z,9.08
2019-04-14T01:29:47.369Z,8.18
2019-04-14T01:32:19.969Z,8.15
2019-04-14T01:34:54.472Z,7.70
2019-04-14T01:37:27.507Z,8.53
2019-04-14T01:40:03.194Z,7.85
2019-04-14T01:42:35.632Z,8.05
2019-04-14T01:45:10.057Z,8.00
2019-04-14T01:47:42.380Z,8.40
2019-04-14T01:50:14.925Z,8.30
2019-04-14T01:53:05.416Z,8.63
2019-04-14T01:55:52.672Z,8.20
2019-04-14T01:58:36.666Z,7.87
2019-04-14T02:01:31.046Z,7.90
2019-04-14T02:04:03.102Z,6.97
2019-04-14T02:06:35.625Z,7.47
2019-04-14T02:09:12.046Z,7.10
2019-04-14T02:11:44.567Z,7.85
2019-04-14T02:14:16.898Z,7.90
2019-04-14T02:16:54.108Z,8.40
2019-04-14T02:19:24.081Z,8.28
2019-04-14T02:21:56.449Z,8.00
2019-04-14T02:24:28.913Z,6.85
2019-04-14T02:29:45.174Z,6.78
2019-04-14T02:32:45.418Z,6.90
2019-04-14T02:35:22.274Z,7.30
2019-04-14T02:37:55.948Z,7.15
2019-04-14T02:40:34.792Z,5.95
2019-04-14T02:42:56.355Z,6.30
2019-04-14T02:45:46.780Z,6.10
2019-04-14T02:48:33.428Z,6.45
2019-04-14T02:50:49.557Z,7.05
2019-04-14T02:53:23.893Z,6.97
2019-04-14T02:56:08.238Z,6.17
2019-04-14T02:58:40.406Z,6.15
2019-04-14T03:01:07.001Z,6.22
2019-04-14T03:03:41.551Z,5.53
2019-04-14T03:06:12.194Z,5.47
2019-04-14T03:08:51.410Z,5.58
2019-04-14T03:11:25.791Z,5.00
2019-04-14T03:14:00.444Z,5.42
2019-04-14T03:17:05.649Z,5.42
2019-04-14T03:20:07.107Z,4.58
2019-04-14T03:22:45.891Z,4.85
2019-04-14T03:25:29.645Z,4.60
2019-04-14T03:34:17.624Z,5.12
2019-04-14T03:37:16.239Z,5.10
2019-04-14T03:39:00.523Z,5.53
2019-04-14T03:43:54.980Z,6.10
2019-04-14T03:46:53.087Z,6.00
2019-04-14T03:51:45.141Z,6.05
2019-04-14T03:54:07.954Z,5.50
2019-04-14T03:56:51.774Z,5.65
2019-04-14T03:59:28.065Z,6.35
2019-04-14T04:02:00.878Z,6.40
2019-04-14T04:04:33.799Z,6.80
2019-04-14T04:07:06.564Z,6.80
2019-04-14T04:09:43.684Z,6.10
2019-04-14T04:12:16.050Z,6.03
2019-04-14T04:14:48.586Z,6.70
2019-04-14T04:17:40.892Z,6.83
2019-04-14T04:20:37.776Z,6.87
2019-04-14T04:23:22.775Z,7.45
2019-04-14T04:26:10.451Z,7.25
2019-04-14T04:29:02.973Z,7.50
2019-04-14T04:32:06.031Z,7.20
2019-04-14T04:35:00.199Z,8.05
2019-04-14T04:37:45.501Z,7.28
2019-04-14T04:40:24.594Z,7.00
2019-04-14T04:42:57.105Z,7.53
2019-04-14T04:45:30.614Z,7.65
2019-04-14T04:48:04.455Z,7.12
2019-04-14T04:50:37.299Z,7.20
2019-04-14T04:53:11.526Z,7.65
2019-04-14T04:55:44.152Z,7.53
2019-04-14T04:58:17.275Z,7.40
2019-04-14T05:00:53.929Z,7.17
2019-04-14T05:03:25.398Z,7.25
2019-04-14T05:06:11.841Z,7.05
2019-04-14T05:08:50.316Z,7.70
2019-04-14T05:11:31.665Z,6.35
2019-04-14T05:14:11.614Z,6.12
2019-04-14T05:16:43.996Z,5.85
2019-04-14T05:19:23.757Z,5.92
2019-04-14T05:21:55.905Z,5.60
2019-04-14T05:24:29.074Z,6.33
2019-04-14T05:27:02.044Z,5.92
2019-04-14T05:29:34.462Z,5.80
2019-04-14T05:32:06.670Z,5.92
2019-04-14T05:34:39.011Z,6.15
2019-04-14T05:37:11.708Z,6.17
2019-04-14T05:39:44.093Z,5.37
2019-04-14T05:42:20.167Z,5.72
2019-04-14T05:44:49.976Z,5.87
2019-04-14T05:47:22.145Z,5.95
2019-04-14T05:49:56.190Z,5.78
2019-04-14T05:52:29.731Z,6.03
2019-04-14T05:55:02.527Z,6.03
2019-04-14T05:57:35.197Z,6.17
2019-04-14T06:00:12.471Z,6.95
2019-04-14T06:02:46.241Z,6.35
2019-04-14T06:05:18.980Z,6.55
2019-04-14T06:07:51.308Z,5.70
2019-04-14T06:10:23.446Z,5.97
2019-04-14T06:12:55.452Z,6.62
2019-04-14T06:15:27.438Z,6.62
2019-04-14T06:17:59.422Z,6.55
2019-04-14T06:20:31.604Z,7.28
2019-04-14T06:23:06.368Z,7.15
2019-04-14T06:25:38.315Z,7.45
2019-04-14T06:28:10.373Z,7.47
2019-04-14T06:31:02.077Z,6.60
2019-04-14T06:33:55.697Z,6.70
2019-04-14T06:36:46.674Z,6.78
2019-04-14T06:39:43.249Z,6.80
2019-04-14T06:42:15.334Z,6.28
2019-04-14T06:44:47.258Z,6.35
2019-04-14T06:47:19.305Z,6.45
2019-04-14T06:49:53.204Z,6.08
2019-04-14T06:52:25.259Z,6.58
2019-04-14T06:54:57.293Z,6.75
2019-04-14T06:57:29.794Z,6.53
2019-04-14T07:00:01.908Z,5.85
2019-04-14T07:02:35.615Z,4.97
2019-04-14T07:05:07.807Z,5.67
2019-04-14T07:07:40.253Z,5.67
2019-04-14T07:10:12.248Z,6.08
2019-04-14T07:12:44.256Z,6.97
2019-04-14T07:15:16.207Z,6.40
2019-04-14T07:17:48.194Z,6.62
2019-04-14T07:20:20.141Z,6.30
2019-04-14T07:22:53.628Z,6.75
2019-04-14T07:25:25.944Z,5.92
2019-04-14T07:27:57.918Z,6.62
2019-04-14T07:30:48.809Z,6.10
2019-04-14T07:33:39.251Z,6.55
2019-04-14T07:36:39.613Z,6.10
2019-04-14T07:39:29.011Z,6.30
2019-04-14T07:42:15.763Z,6.42
2019-04-14T07:45:06.565Z,5.95
2019-04-14T07:48:00.493Z,5.80
2019-04-14T07:50:55.956Z,5.53
2019-04-14T07:53:55.634Z,5.22
2019-04-14T07:56:58.860Z,5.60
2019-04-14T07:59:36.944Z,4.87
2019-04-14T08:02:15.301Z,5.50
2019-04-14T08:05:04.377Z,4.45
2019-04-14T08:07:36.492Z,4.65
2019-04-14T08:10:09.204Z,5.10
2019-04-14T08:12:41.389Z,5.17
2019-04-14T08:15:13.866Z,4.87
2019-04-14T08:17:46.062Z,3.83
2019-04-14T08:20:27.315Z,5.05
2019-04-14T08:22:51.808Z,4.62
2019-04-14T08:25:23.819Z,5.03
2019-04-14T08:27:57.852Z,4.50
2019-04-14T08:30:30.144Z,4.17
2019-04-14T08:33:02.981Z,3.30
2019-04-14T08:35:36.247Z,3.98
2019-04-14T08:38:08.620Z,4.10
2019-04-14T08:40:42.323Z,4.10
2019-04-14T08:43:30.683Z,4.15
2019-04-14T08:46:21.314Z,4.05
2019-04-14T08:48:57.614Z,3.90
2019-04-14T08:51:47.166Z,4.03
2019-04-14T08:54:56.363Z,4.10
2019-04-14T08:57:52.284Z,3.50
2019-04-14T09:00:33.805Z,3.67
2019-04-14T09:03:23.880Z,3.90
2019-04-14T09:06:10.530Z,3.70
2019-04-14T09:08:53.435Z,4.10
2019-04-14T09:11:36.731Z,3.75
2019-04-14T09:14:11.603Z,3.98
2019-04-14T09:16:45.025Z,4.25
2019-04-14T09:19:19.331Z,3.52
2019-04-14T09:21:51.343Z,3.72
2019-04-14T09:24:25.110Z,3.77
2019-04-14T09:26:57.173Z,3.65
2019-04-14T09:29:34.480Z,4.53
2019-04-14T09:32:08.471Z,3.55
2019-04-14T09:34:40.575Z,4.90
2019-04-14T09:37:12.532Z,5.28
2019-04-14T09:39:45.078Z,4.40
2019-04-14T09:42:17.488Z,5.33
2019-04-14T09:44:50.991Z,5.40
2019-04-14T09:47:22.997Z,4.78
2019-04-14T09:49:55.138Z,5.67
2019-04-14T09:52:27.476Z,5.33
2019-04-14T09:54:59.480Z,4.58
2019-04-14T09:57:31.538Z,5.22
2019-04-14T10:00:04.883Z,5.10
2019-04-14T10:02:37.086Z,5.17
2019-04-14T10:05:09.499Z,4.87
2019-04-14T10:07:41.598Z,5.55
2019-04-14T10:10:13.857Z,5.22
2019-04-14T10:12:46.325Z,4.60
2019-04-14T10:15:18.358Z,5.60
2019-04-14T10:17:50.328Z,6.30
2019-04-14T10:20:22.343Z,5.28
2019-04-14T10:22:54.504Z,4.78
2019-04-14T10:25:26.603Z,5.00
2019-04-14T10:27:59.053Z,5.42
2019-04-14T10:30:33.527Z,5.05
2019-04-14T10:33:05.581Z,4.17
2019-04-14T10:35:37.677Z,4.00
2019-04-14T10:38:10.223Z,4.47
2019-04-14T10:40:43.420Z,2.83
2019-04-14T10:43:15.543Z,2.27
2019-04-14T10:45:50.415Z,2.72
2019-04-14T10:48:22.511Z,2.72
2019-04-14T10:50:54.510Z,2.33
2019-04-14T10:53:27.329Z,2.50
2019-04-14T10:55:59.396Z,2.87
2019-04-14T10:58:38.030Z,2.65
2019-04-14T11:01:19.397Z,2.30
2019-04-14T11:03:59.698Z,2.62
2019-04-14T11:06:45.323Z,2.20
2019-04-14T11:09:19.211Z,2.27
2019-04-14T11:11:51.203Z,2.52
2019-04-14T11:14:23.984Z,2.17
2019-04-14T11:16:56.076Z,2.77
2019-04-14T11:19:28.029Z,2.30
2019-04-14T11:22:02.750Z,6.70
2019-04-14T11:24:36.334Z,2.65
2019-04-14T11:27:08.302Z,2.30
2019-04-14T11:29:40.257Z,2.77
2019-04-14T11:32:49.222Z,2.30
2019-04-14T11:35:28.751Z,2.60
2019-04-14T11:38:31.736Z,2.20
2019-04-14T11:41:06.999Z,2.40
2019-04-14T11:43:39.092Z,2.15
2019-04-14T11:46:11.044Z,2.17
2019-04-14T11:48:44.818Z,2.00
2019-04-14T11:51:18.248Z,2.15
2019-04-14T11:53:50.099Z,2.10
2019-04-14T11:56:22.038Z,2.30
2019-04-14T11:58:53.890Z,2.10
2019-04-14T12:01:43.922Z,2.80
2019-04-14T12:04:27.967Z,2.87
2019-04-14T12:20:09.311Z,2.05
2019-04-14T12:22:41.214Z,2.00
2019-04-14T12:25:13.130Z,1.95
2019-04-14T12:27:46.538Z,1.82
2019-04-14T12:30:20.083Z,1.90
2019-04-14T12:32:52.329Z,1.82
2019-04-14T12:35:24.297Z,1.75
2019-04-14T12:37:56.823Z,2.20
2019-04-14T12:40:28.906Z,2.35
2019-04-14T12:43:23.227Z,2.27
2019-04-14T12:46:14.800Z,2.02
2019-04-14T12:48:52.118Z,2.30
2019-04-14T12:51:57.876Z,2.40
2019-04-14T12:54:29.828Z,2.52
2019-04-14T12:57:01.718Z,2.87
2019-04-14T12:59:35.857Z,2.37
2019-04-14T13:02:32.767Z,3.22
2019-04-14T13:05:06.424Z,3.00
2019-04-14T13:07:38.324Z,3.10
2019-04-14T13:10:10.645Z,2.45
2019-04-14T13:12:42.563Z,2.62
2019-04-14T13:15:14.722Z,1.77
2019-04-14T13:17:47.103Z,2.30
2019-04-14T13:20:20.661Z,2.45
2019-04-14T13:22:53.450Z,1.95
2019-04-14T13:25:25.923Z,2.52
2019-04-14T13:27:59.282Z,2.47
2019-04-14T13:30:36.008Z,2.00
2019-04-14T13:33:09.287Z,2.85
2019-04-14T13:35:53.362Z,2.33
2019-04-14T13:38:31.551Z,2.27
2019-04-14T13:41:11.913Z,2.22
2019-04-14T13:43:54.946Z,2.52
2019-04-14T13:46:37.475Z,2.10
2019-04-14T13:49:17.444Z,2.30
2019-04-14T13:51:52.046Z,2.20
2019-04-14T13:54:26.540Z,2.05
2019-04-14T13:57:09.698Z,2.42
2019-04-14T13:59:39.185Z,3.25
2019-04-14T14:02:14.289Z,2.90
2019-04-14T14:04:46.239Z,2.47
2019-04-14T14:07:18.563Z,2.40
2019-04-14T14:09:50.529Z,3.02
2019-04-14T14:12:27.843Z,2.50
2019-04-14T14:15:12.013Z,3.02
2019-04-14T14:17:48.648Z,3.22
2019-04-14T14:20:43.631Z,3.50
2019-04-14T14:23:27.823Z,3.08
2019-04-14T14:26:04.106Z,3.25
2019-04-14T14:28:38.543Z,3.20
2019-04-14T14:31:14.043Z,2.92
2019-04-14T14:33:46.044Z,3.25
2019-04-14T14:36:18.028Z,3.05
2019-04-14T14:38:52.761Z,2.83
2019-04-14T14:41:24.748Z,2.87
2019-04-14T14:43:58.321Z,2.90
2019-04-14T14:46:43.646Z,3.00
2019-04-14T14:49:37.441Z,2.52
2019-04-14T14:52:11.552Z,2.85
2019-04-14T14:54:44.700Z,2.87
2019-04-14T14:57:17.161Z,2.80
2019-04-14T14:59:49.671Z,3.10
2019-04-14T15:02:22.659Z,2.30
2019-04-14T15:04:55.900Z,2.55
2019-04-14T15:07:28.187Z,2.90
2019-04-14T15:10:01.603Z,2.65
2019-04-14T15:12:37.099Z,2.92
2019-04-14T15:15:10.742Z,2.83
2019-04-14T15:17:43.218Z,3.00
2019-04-14T15:20:15.492Z,3.00
2019-04-14T15:22:48.752Z,2.90
2019-04-14T15:25:20.926Z,2.75
2019-04-14T15:27:53.455Z,2.80
2019-04-14T15:30:26.125Z,2.62
2019-04-14T15:33:00.026Z,2.72
2019-04-14T15:35:32.252Z,2.42
2019-04-14T15:38:04.904Z,2.80
2019-04-14T15:40:37.118Z,2.67
2019-04-14T15:43:10.308Z,2.90
2019-04-14T15:45:42.762Z,3.05
2019-04-14T15:48:15.450Z,2.60
2019-04-14T15:50:48.313Z,2.40
2019-04-14T15:53:21.642Z,2.58
2019-04-14T15:55:53.679Z,2.05
2019-04-14T15:58:41.093Z,2.60
2019-04-14T16:01:35.482Z,2.55
2019-04-14T16:04:38.284Z,2.87
2019-04-14T16:07:34.427Z,2.77
2019-04-14T16:10:19.574Z,2.58
2019-04-14T16:13:15.316Z,2.98
2019-04-14T16:16:10.052Z,2.65
2019-04-14T16:19:15.104Z,2.85
2019-04-14T16:21:49.666Z,3.08
2019-04-14T16:24:22.054Z,3.27
2019-04-14T16:27:18.486Z,3.00
2019-04-14T16:30:18.991Z,3.33
2019-04-14T16:33:13.592Z,2.70
2019-04-14T16:35:46.628Z,2.90
2019-04-14T16:38:18.989Z,2.98
2019-04-14T16:40:51.139Z,2.90
2019-04-14T16:43:26.086Z,2.30
2019-04-14T16:49:03.004Z,2.40
2019-04-14T16:51:53.611Z,2.80
2019-04-14T16:54:45.754Z,2.75
2019-04-14T16:57:45.563Z,2.98
2019-04-14T17:00:25.633Z,2.55
2019-04-14T17:02:58.199Z,2.62
2019-04-14T17:05:30.820Z,2.67
2019-04-14T17:08:03.088Z,2.62
2019-04-14T17:10:35.613Z,2.52
2019-04-14T17:13:10.991Z,2.83
2019-04-14T17:16:02.049Z,3.00
2019-04-14T17:18:52.065Z,2.67
2019-04-14T17:21:35.377Z,4.12
2019-04-14T17:24:25.145Z,3.47
2019-04-14T17:27:05.965Z,2.87
2019-04-14T17:29:51.157Z,3.00
2019-04-14T17:32:37.022Z,3.27
2019-04-14T17:39:06.540Z,3.30
2019-04-14T17:41:46.318Z,3.12
2019-04-14T17:44:52.403Z,3.00
2019-04-14T17:47:47.185Z,3.35
2019-04-14T17:50:40.488Z,3.58
2019-04-14T17:53:17.540Z,3.52
2019-04-14T17:55:57.729Z,4.12
2019-04-14T17:58:57.800Z,3.47
2019-04-14T18:01:40.967Z,3.80
2019-04-14T18:04:34.291Z,4.37
2019-04-14T18:07:24.295Z,4.15
2019-04-14T18:10:03.057Z,3.90
2019-04-14T18:12:39.772Z,4.30
2019-04-14T18:15:27.942Z,4.40
2019-04-14T18:18:25.318Z,4.97
2019-04-14T18:21:02.865Z,4.05
2019-04-14T18:23:35.005Z,3.72
2019-04-14T18:26:09.588Z,5.10
2019-04-14T18:28:51.029Z,5.55
2019-04-14T18:31:35.452Z,4.92
2019-04-14T18:34:29.580Z,5.50
2019-04-14T18:37:24.136Z,5.42
2019-04-14T18:40:07.522Z,6.30
2019-04-14T18:42:53.145Z,5.60
2019-04-14T18:45:35.170Z,5.70
2019-04-14T18:48:26.464Z,5.42
2019-04-14T18:51:31.301Z,5.70
2019-04-14T18:54:29.556Z,6.00
2019-04-14T18:57:09.757Z,5.83
2019-04-14T19:00:11.324Z,6.35
2019-04-14T19:02:46.272Z,7.58
2019-04-14T19:05:20.986Z,6.97
2019-04-14T19:07:54.957Z,7.45
2019-04-14T19:10:32.124Z,7.22
2019-04-14T19:13:10.818Z,7.55
2019-04-14T19:15:49.511Z,8.20
2019-04-14T19:18:37.070Z,8.18
2019-04-14T19:21:16.398Z,7.62
2019-04-14T19:23:51.289Z,8.28
2019-04-14T19:26:27.091Z,7.92
2019-04-14T19:29:00.311Z,8.08
2019-04-14T19:31:37.567Z,7.33
2019-04-14T19:34:14.758Z,8.05
2019-04-14T19:36:47.620Z,7.03
2019-04-14T19:39:21.768Z,7.95
2019-04-14T19:41:54.986Z,7.87
2019-04-14T19:44:29.472Z,8.65
2019-04-14T19:47:05.936Z,8.25
2019-04-14T19:49:41.729Z,7.95
2019-04-14T19:52:14.637Z,7.97
2019-04-14T19:54:47.690Z,8.03
2019-04-14T19:57:22.199Z,8.20
2019-04-14T20:00:02.056Z,9.25
2019-04-14T20:02:36.570Z,9.23
2019-04-14T20:05:14.374Z,10.43
2019-04-14T20:07:48.371Z,10.13
2019-04-14T20:10:27.807Z,8.68
2019-04-14T20:13:02.255Z,8.03
2019-04-14T20:15:47.337Z,8.38
2019-04-14T20:18:33.558Z,8.60
2019-04-14T20:21:42.643Z,7.83
2019-04-14T20:24:23.130Z,7.45
2019-04-14T20:27:21.573Z,9.13
2019-04-14T20:29:58.132Z,9.30
2019-04-14T20:32:34.241Z,9.08
2019-04-14T20:35:13.286Z,9.35
2019-04-14T20:37:48.468Z,8.88
2019-04-14T20:40:21.139Z,8.45
2019-04-14T20:42:56.471Z,8.53
2019-04-14T20:45:28.890Z,8.35
2019-04-14T20:48:01.135Z,8.58
2019-04-14T20:50:35.649Z,8.78
2019-04-14T20:53:10.386Z,8.00
2019-04-14T20:55:47.207Z,7.67
2019-04-14T20:58:18.474Z,8.00
2019-04-14T21:00:50.677Z,8.00
2019-04-14T21:03:48.061Z,8.48
2019-04-14T21:06:37.589Z,8.05
2019-04-14T21:09:22.422Z,7.53
2019-04-14T21:12:16.548Z,7.62
2019-04-14T21:15:16.297Z,7.60
2019-04-14T21:18:13.794Z,7.33
2019-04-14T21:21:03.769Z,7.37
2019-04-14T21:23:50.970Z,7.33
2019-04-14T21:26:31.284Z,7.12
2019-04-14T21:29:33.864Z,6.80
2019-04-14T21:32:16.902Z,7.50
2019-04-14T21:35:09.578Z,6.70
2019-04-14T21:38:03.923Z,7.35
2019-04-14T21:40:55.171Z,6.72
2019-04-14T21:43:34.008Z,6.85
2019-04-14T21:46:07.249Z,6.75
2019-04-14T21:48:39.558Z,6.87
2019-04-14T21:51:12.336Z,6.67
2019-04-14T21:53:45.644Z,7.28
2019-04-14T21:56:30.938Z,6.53
2019-04-14T21:59:14.996Z,6.40
2019-04-14T22:02:22.250Z,5.62
2019-04-14T22:05:16.244Z,5.60
2019-04-14T22:08:04.842Z,5.70
2019-04-14T22:10:46.782Z,5.87
2019-04-14T22:13:21.308Z,6.12
2019-04-14T22:15:57.016Z,6.70
2019-04-14T22:18:29.364Z,6.37
2019-04-14T22:21:02.979Z,5.78
2019-04-14T22:23:36.803Z,5.50
2019-04-14T22:26:09.586Z,5.53
2019-04-14T22:28:42.235Z,5.17
2019-04-14T22:31:16.813Z,5.42
2019-04-14T22:33:59.149Z,5.37
2019-04-14T22:36:28.569Z,5.00
2019-04-14T22:39:06.556Z,4.65
2019-04-14T22:41:41.743Z,4.45
2019-04-14T22:44:13.974Z,4.85
2019-04-14T22:46:54.012Z,4.65
2019-04-14T22:49:26.916Z,4.55
2019-04-14T22:52:00.705Z,4.05
2019-04-14T22:54:33.360Z,4.50
2019-04-14T22:57:07.519Z,4.35
2019-04-14T22:59:49.677Z,4.62
2019-04-14T23:02:52.138Z,4.20
2019-04-14T23:05:59.258Z,4.17
2019-04-14T23:08:56.596Z,3.70
2019-04-14T23:11:57.741Z,3.25
2019-04-14T23:14:52.407Z,3.80
2019-04-14T23:17:36.278Z,4.05
2019-04-14T23:20:46.528Z,3.95
2019-04-14T23:23:50.042Z,4.08
2019-04-14T23:26:32.250Z,3.45
2019-04-14T23:29:13.512Z,3.77
2019-04-14T23:31:46.962Z,3.80
2019-04-14T23:34:21.829Z,4.05
2019-04-14T23:37:00.275Z,4.30
2019-04-14T23:39:40.891Z,3.87
2019-04-14T23:42:16.191Z,3.87
2019-04-14T23:44:49.818Z,3.50
2019-04-14T23:47:27.694Z,3.87
2019-04-14T23:50:04.947Z,3.60
2019-04-14T23:52:37.445Z,3.70
2019-04-14T23:55:20.819Z,4.05
2019-04-14T23:57:49.123Z,3.65
